sensor_id;sensor_type;location;lat;lon;timestamp;P1;durP1;ratioP1;P2;durP2;ratioP2
16189;SDS011;41754;51.498;7.540;2022-07-23T00:00:33;12.43;;;7.43;;
16189;SDS011;41754;51.498;7.540;2022-07-23T00:03:05;12.75;;;8.02;;
16189;SDS011;41754;51.498;7.540;2022-07-23T00:05:33;13.10;;;8.98;;
16189;SDS011;41754;51.498;7.540;2022-07-23T00:08:03;16.25;;;9.15;;
16189;SDS011;41754;51.498;7.540;2022-07-23T00:10:36;12.25;;;9.80;;
16189;SDS011;41754;51.498;7.540;2022-07-23T00:13:04;14.77;;;10.05;;
16189;SDS011;41754;51.498;7.540;2022-07-23T00:15:34;11.93;;;9.90;;
16189;SDS011;41754;51.498;7.540;2022-07-23T00:18:02;16.75;;;10.13;;
16189;SDS011;41754;51.498;7.540;2022-07-23T00:20:30;12.18;;;9.75;;
16189;SDS011;41754;51.498;7.540;2022-07-23T00:22:58;15.90;;;10.52;;
16189;SDS011;41754;51.498;7.540;2022-07-23T00:25:26;13.65;;;10.07;;
16189;SDS011;41754;51.498;7.540;2022-07-23T00:27:56;15.48;;;10.75;;
16189;SDS011;41754;51.498;7.540;2022-07-23T00:30:24;16.80;;;10.60;;
16189;SDS011;41754;51.498;7.540;2022-07-23T00:32:54;13.43;;;11.20;;
16189;SDS011;41754;51.498;7.540;2022-07-23T00:35:24;14.27;;;10.98;;
16189;SDS011;41754;51.498;7.540;2022-07-23T00:37:52;13.65;;;10.98;;
16189;SDS011;41754;51.498;7.540;2022-07-23T00:40:20;15.35;;;11.55;;
16189;SDS011;41754;51.498;7.540;2022-07-23T00:42:48;14.63;;;11.30;;
16189;SDS011;41754;51.498;7.540;2022-07-23T00:45:16;16.98;;;11.75;;
16189;SDS011;41754;51.498;7.540;2022-07-23T00:47:45;14.05;;;11.27;;
16189;SDS011;41754;51.498;7.540;2022-07-23T00:50:14;15.40;;;11.75;;
16189;SDS011;41754;51.498;7.540;2022-07-23T00:52:42;14.90;;;11.00;;
16189;SDS011;41754;51.498;7.540;2022-07-23T00:55:10;15.25;;;11.40;;
16189;SDS011;41754;51.498;7.540;2022-07-23T00:57:39;17.15;;;11.73;;
16189;SDS011;41754;51.498;7.540;2022-07-23T01:00:09;13.45;;;11.60;;
16189;SDS011;41754;51.498;7.540;2022-07-23T01:02:39;18.38;;;12.18;;
16189;SDS011;41754;51.498;7.540;2022-07-23T01:05:07;17.23;;;12.75;;
16189;SDS011;41754;51.498;7.540;2022-07-23T01:07:37;13.38;;;11.88;;
16189;SDS011;41754;51.498;7.540;2022-07-23T01:10:06;16.42;;;12.52;;
16189;SDS011;41754;51.498;7.540;2022-07-23T01:12:55;17.17;;;12.45;;
16189;SDS011;41754;51.498;7.540;2022-07-23T01:15:23;17.30;;;12.07;;
16189;SDS011;41754;51.498;7.540;2022-07-23T01:17:51;16.63;;;12.20;;
16189;SDS011;41754;51.498;7.540;2022-07-23T01:20:20;15.88;;;12.68;;
16189;SDS011;41754;51.498;7.540;2022-07-23T01:22:50;14.98;;;13.18;;
16189;SDS011;41754;51.498;7.540;2022-07-23T01:25:18;18.00;;;14.10;;
16189;SDS011;41754;51.498;7.540;2022-07-23T01:27:53;17.80;;;12.90;;
16189;SDS011;41754;51.498;7.540;2022-07-23T01:30:22;17.42;;;13.32;;
16189;SDS011;41754;51.498;7.540;2022-07-23T01:32:51;20.20;;;13.07;;
16189;SDS011;41754;51.498;7.540;2022-07-23T01:35:18;16.27;;;13.23;;
16189;SDS011;41754;51.498;7.540;2022-07-23T01:37:47;17.38;;;13.18;;
16189;SDS011;41754;51.498;7.540;2022-07-23T01:40:18;17.83;;;12.93;;
16189;SDS011;41754;51.498;7.540;2022-07-23T01:42:48;14.40;;;12.90;;
16189;SDS011;41754;51.498;7.540;2022-07-23T01:45:17;20.60;;;13.02;;
16189;SDS011;41754;51.498;7.540;2022-07-23T01:47:48;18.73;;;11.75;;
16189;SDS011;41754;51.498;7.540;2022-07-23T01:50:16;17.23;;;12.70;;
16189;SDS011;41754;51.498;7.540;2022-07-23T01:53:03;15.38;;;13.07;;
16189;SDS011;41754;51.498;7.540;2022-07-23T01:55:36;17.25;;;12.77;;
16189;SDS011;41754;51.498;7.540;2022-07-23T01:58:04;17.52;;;14.25;;
16189;SDS011;41754;51.498;7.540;2022-07-23T02:00:33;17.27;;;14.02;;
16189;SDS011;41754;51.498;7.540;2022-07-23T02:03:01;16.52;;;14.25;;
16189;SDS011;41754;51.498;7.540;2022-07-23T02:05:29;19.55;;;14.95;;
16189;SDS011;41754;51.498;7.540;2022-07-23T02:07:58;16.25;;;13.38;;
16189;SDS011;41754;51.498;7.540;2022-07-23T02:10:26;17.10;;;13.57;;
16189;SDS011;41754;51.498;7.540;2022-07-23T02:12:56;18.65;;;14.00;;
16189;SDS011;41754;51.498;7.540;2022-07-23T02:15:24;17.60;;;13.88;;
16189;SDS011;41754;51.498;7.540;2022-07-23T02:17:52;21.85;;;13.95;;
16189;SDS011;41754;51.498;7.540;2022-07-23T02:20:20;18.55;;;13.93;;
16189;SDS011;41754;51.498;7.540;2022-07-23T02:22:48;18.73;;;14.07;;
16189;SDS011;41754;51.498;7.540;2022-07-23T02:25:16;17.92;;;14.07;;
16189;SDS011;41754;51.498;7.540;2022-07-23T02:27:44;16.17;;;13.30;;
16189;SDS011;41754;51.498;7.540;2022-07-23T02:30:14;15.10;;;13.50;;
16189;SDS011;41754;51.498;7.540;2022-07-23T02:32:42;19.15;;;14.02;;
16189;SDS011;41754;51.498;7.540;2022-07-23T02:35:10;16.67;;;13.98;;
16189;SDS011;41754;51.498;7.540;2022-07-23T02:37:38;20.83;;;13.93;;
16189;SDS011;41754;51.498;7.540;2022-07-23T02:40:07;19.73;;;13.95;;
16189;SDS011;41754;51.498;7.540;2022-07-23T02:42:38;23.40;;;15.13;;
16189;SDS011;41754;51.498;7.540;2022-07-23T02:45:08;21.65;;;14.88;;
16189;SDS011;41754;51.498;7.540;2022-07-23T02:47:40;18.55;;;14.20;;
16189;SDS011;41754;51.498;7.540;2022-07-23T02:50:08;22.40;;;15.15;;
16189;SDS011;41754;51.498;7.540;2022-07-23T02:52:38;22.33;;;13.95;;
16189;SDS011;41754;51.498;7.540;2022-07-23T02:55:06;20.85;;;15.00;;
16189;SDS011;41754;51.498;7.540;2022-07-23T02:57:35;20.05;;;14.75;;
16189;SDS011;41754;51.498;7.540;2022-07-23T03:00:03;19.63;;;14.25;;
16189;SDS011;41754;51.498;7.540;2022-07-23T03:02:33;19.88;;;14.70;;
16189;SDS011;41754;51.498;7.540;2022-07-23T03:05:03;18.42;;;13.88;;
16189;SDS011;41754;51.498;7.540;2022-07-23T03:07:33;19.92;;;14.80;;
16189;SDS011;41754;51.498;7.540;2022-07-23T03:10:01;17.45;;;13.93;;
16189;SDS011;41754;51.498;7.540;2022-07-23T03:12:29;22.95;;;15.15;;
16189;SDS011;41754;51.498;7.540;2022-07-23T03:14:57;23.55;;;16.33;;
16189;SDS011;41754;51.498;7.540;2022-07-23T03:17:26;23.35;;;15.70;;
16189;SDS011;41754;51.498;7.540;2022-07-23T03:19:54;17.65;;;14.88;;
16189;SDS011;41754;51.498;7.540;2022-07-23T03:22:24;21.20;;;15.63;;
16189;SDS011;41754;51.498;7.540;2022-07-23T03:24:52;22.27;;;16.38;;
16189;SDS011;41754;51.498;7.540;2022-07-23T03:27:26;19.25;;;15.02;;
16189;SDS011;41754;51.498;7.540;2022-07-23T03:29:57;26.25;;;17.73;;
16189;SDS011;41754;51.498;7.540;2022-07-23T03:32:25;18.13;;;14.50;;
16189;SDS011;41754;51.498;7.540;2022-07-23T03:34:54;21.38;;;16.00;;
16189;SDS011;41754;51.498;7.540;2022-07-23T03:37:24;21.17;;;15.32;;
16189;SDS011;41754;51.498;7.540;2022-07-23T03:39:56;19.83;;;15.98;;
16189;SDS011;41754;51.498;7.540;2022-07-23T03:42:24;20.00;;;15.60;;
16189;SDS011;41754;51.498;7.540;2022-07-23T03:44:52;25.33;;;17.05;;
16189;SDS011;41754;51.498;7.540;2022-07-23T03:47:20;23.92;;;17.02;;
16189;SDS011;41754;51.498;7.540;2022-07-23T03:49:49;22.58;;;16.48;;
16189;SDS011;41754;51.498;7.540;2022-07-23T03:52:17;22.38;;;16.88;;
16189;SDS011;41754;51.498;7.540;2022-07-23T03:54:46;26.33;;;17.15;;
16189;SDS011;41754;51.498;7.540;2022-07-23T03:57:15;22.13;;;15.93;;
16189;SDS011;41754;51.498;7.540;2022-07-23T03:59:42;21.70;;;16.55;;
16189;SDS011;41754;51.498;7.540;2022-07-23T04:02:11;21.20;;;16.27;;
16189;SDS011;41754;51.498;7.540;2022-07-23T04:04:39;24.83;;;16.75;;
16189;SDS011;41754;51.498;7.540;2022-07-23T04:07:07;19.63;;;16.75;;
16189;SDS011;41754;51.498;7.540;2022-07-23T04:09:37;24.08;;;16.88;;
16189;SDS011;41754;51.498;7.540;2022-07-23T04:12:13;24.80;;;17.58;;
16189;SDS011;41754;51.498;7.540;2022-07-23T04:14:41;25.73;;;19.10;;
16189;SDS011;41754;51.498;7.540;2022-07-23T04:17:09;23.80;;;17.42;;
16189;SDS011;41754;51.498;7.540;2022-07-23T04:19:37;25.67;;;17.88;;
16189;SDS011;41754;51.498;7.540;2022-07-23T04:22:08;25.80;;;18.25;;
16189;SDS011;41754;51.498;7.540;2022-07-23T04:24:37;25.58;;;17.60;;
16189;SDS011;41754;51.498;7.540;2022-07-23T04:27:05;21.30;;;16.75;;
16189;SDS011;41754;51.498;7.540;2022-07-23T04:29:35;23.63;;;18.17;;
16189;SDS011;41754;51.498;7.540;2022-07-23T04:32:03;47.65;;;21.88;;
16189;SDS011;41754;51.498;7.540;2022-07-23T04:34:32;80.10;;;26.67;;
16189;SDS011;41754;51.498;7.540;2022-07-23T04:37:00;48.35;;;23.17;;
16189;SDS011;41754;51.498;7.540;2022-07-23T04:39:30;36.03;;;20.90;;
16189;SDS011;41754;51.498;7.540;2022-07-23T04:41:58;27.27;;;19.60;;
16189;SDS011;41754;51.498;7.540;2022-07-23T04:44:27;47.78;;;23.02;;
16189;SDS011;41754;51.498;7.540;2022-07-23T04:46:57;44.65;;;20.20;;
16189;SDS011;41754;51.498;7.540;2022-07-23T04:49:25;71.47;;;23.70;;
16189;SDS011;41754;51.498;7.540;2022-07-23T04:51:54;76.47;;;25.27;;
16189;SDS011;41754;51.498;7.540;2022-07-23T04:54:22;85.40;;;23.30;;
16189;SDS011;41754;51.498;7.540;2022-07-23T04:56:50;51.08;;;21.40;;
16189;SDS011;41754;51.498;7.540;2022-07-23T04:59:18;38.10;;;21.23;;
16189;SDS011;41754;51.498;7.540;2022-07-23T05:01:49;48.40;;;20.20;;
16189;SDS011;41754;51.498;7.540;2022-07-23T05:04:18;48.13;;;20.05;;
16189;SDS011;41754;51.498;7.540;2022-07-23T05:06:47;96.75;;;25.23;;
16189;SDS011;41754;51.498;7.540;2022-07-23T05:09:15;126.53;;;23.27;;
16189;SDS011;41754;51.498;7.540;2022-07-23T05:11:43;72.95;;;22.27;;
16189;SDS011;41754;51.498;7.540;2022-07-23T05:14:11;33.70;;;20.98;;
16189;SDS011;41754;51.498;7.540;2022-07-23T05:16:40;35.38;;;21.30;;
16189;SDS011;41754;51.498;7.540;2022-07-23T05:19:14;24.98;;;20.33;;
16189;SDS011;41754;51.498;7.540;2022-07-23T05:21:45;55.72;;;24.23;;
16189;SDS011;41754;51.498;7.540;2022-07-23T05:24:13;27.00;;;20.63;;
16189;SDS011;41754;51.498;7.540;2022-07-23T05:26:41;73.47;;;25.02;;
16189;SDS011;41754;51.498;7.540;2022-07-23T05:29:10;56.47;;;24.05;;
16189;SDS011;41754;51.498;7.540;2022-07-23T05:31:38;31.98;;;21.45;;
16189;SDS011;41754;51.498;7.540;2022-07-23T05:34:06;32.08;;;22.15;;
16189;SDS011;41754;51.498;7.540;2022-07-23T05:36:36;25.75;;;20.70;;
16189;SDS011;41754;51.498;7.540;2022-07-23T05:39:05;22.73;;;20.27;;
16189;SDS011;41754;51.498;7.540;2022-07-23T05:41:35;37.42;;;22.73;;
16189;SDS011;41754;51.498;7.540;2022-07-23T05:44:03;33.35;;;22.75;;
16189;SDS011;41754;51.498;7.540;2022-07-23T05:46:35;26.90;;;21.10;;
16189;SDS011;41754;51.498;7.540;2022-07-23T05:49:06;29.40;;;21.98;;
16189;SDS011;41754;51.498;7.540;2022-07-23T05:51:49;37.20;;;22.88;;
16189;SDS011;41754;51.498;7.540;2022-07-23T05:54:27;33.20;;;22.08;;
16189;SDS011;41754;51.498;7.540;2022-07-23T05:56:55;27.27;;;21.77;;
16189;SDS011;41754;51.498;7.540;2022-07-23T05:59:24;28.33;;;22.27;;
16189;SDS011;41754;51.498;7.540;2022-07-23T06:01:52;28.02;;;21.88;;
16189;SDS011;41754;51.498;7.540;2022-07-23T06:04:20;27.92;;;21.08;;
16189;SDS011;41754;51.498;7.540;2022-07-23T06:07:05;29.20;;;22.20;;
16189;SDS011;41754;51.498;7.540;2022-07-23T06:09:34;24.00;;;21.20;;
16189;SDS011;41754;51.498;7.540;2022-07-23T06:12:02;27.77;;;23.23;;
16189;SDS011;41754;51.498;7.540;2022-07-23T06:14:31;28.80;;;21.85;;
16189;SDS011;41754;51.498;7.540;2022-07-23T06:16:59;33.45;;;23.95;;
16189;SDS011;41754;51.498;7.540;2022-07-23T06:19:27;39.75;;;24.15;;
16189;SDS011;41754;51.498;7.540;2022-07-23T06:21:55;29.35;;;24.33;;
16189;SDS011;41754;51.498;7.540;2022-07-23T06:24:23;28.90;;;23.50;;
16189;SDS011;41754;51.498;7.540;2022-07-23T06:26:52;32.83;;;24.00;;
16189;SDS011;41754;51.498;7.540;2022-07-23T06:29:20;24.67;;;21.95;;
16189;SDS011;41754;51.498;7.540;2022-07-23T06:31:48;26.67;;;22.23;;
16189;SDS011;41754;51.498;7.540;2022-07-23T06:34:16;28.67;;;22.85;;
16189;SDS011;41754;51.498;7.540;2022-07-23T06:36:44;30.05;;;24.58;;
16189;SDS011;41754;51.498;7.540;2022-07-23T06:39:12;26.05;;;22.90;;
16189;SDS011;41754;51.498;7.540;2022-07-23T06:41:44;28.92;;;23.70;;
16189;SDS011;41754;51.498;7.540;2022-07-23T06:44:18;27.70;;;23.83;;
16189;SDS011;41754;51.498;7.540;2022-07-23T06:46:47;29.30;;;24.38;;
16189;SDS011;41754;51.498;7.540;2022-07-23T06:49:15;29.65;;;23.92;;
16189;SDS011;41754;51.498;7.540;2022-07-23T06:51:43;32.88;;;27.58;;
16189;SDS011;41754;51.498;7.540;2022-07-23T06:54:11;34.67;;;28.45;;
16189;SDS011;41754;51.498;7.540;2022-07-23T06:56:39;41.92;;;33.47;;
16189;SDS011;41754;51.498;7.540;2022-07-23T06:59:09;46.95;;;37.08;;
16189;SDS011;41754;51.498;7.540;2022-07-23T07:01:39;40.83;;;35.92;;
16189;SDS011;41754;51.498;7.540;2022-07-23T07:04:07;48.85;;;41.78;;
16189;SDS011;41754;51.498;7.540;2022-07-23T07:06:35;46.97;;;40.80;;
16189;SDS011;41754;51.498;7.540;2022-07-23T07:09:03;48.85;;;43.65;;
16189;SDS011;41754;51.498;7.540;2022-07-23T07:11:31;50.50;;;43.38;;
16189;SDS011;41754;51.498;7.540;2022-07-23T07:13:59;51.53;;;43.22;;
16189;SDS011;41754;51.498;7.540;2022-07-23T07:16:27;48.92;;;42.05;;
16189;SDS011;41754;51.498;7.540;2022-07-23T07:18:59;49.20;;;43.42;;
16189;SDS011;41754;51.498;7.540;2022-07-23T07:21:28;44.45;;;38.03;;
16189;SDS011;41754;51.498;7.540;2022-07-23T07:23:56;41.53;;;36.78;;
16189;SDS011;41754;51.498;7.540;2022-07-23T07:26:24;44.22;;;38.97;;
16189;SDS011;41754;51.498;7.540;2022-07-23T07:28:52;42.35;;;37.63;;
16189;SDS011;41754;51.498;7.540;2022-07-23T07:31:20;40.42;;;36.13;;
16189;SDS011;41754;51.498;7.540;2022-07-23T07:33:48;43.05;;;35.63;;
16189;SDS011;41754;51.498;7.540;2022-07-23T07:36:18;40.35;;;35.55;;
16189;SDS011;41754;51.498;7.540;2022-07-23T07:38:47;42.25;;;37.45;;
16189;SDS011;41754;51.498;7.540;2022-07-23T07:41:15;44.95;;;40.10;;
16189;SDS011;41754;51.498;7.540;2022-07-23T07:43:43;46.20;;;41.28;;
16189;SDS011;41754;51.498;7.540;2022-07-23T07:46:11;45.83;;;40.70;;
16189;SDS011;41754;51.498;7.540;2022-07-23T07:48:39;45.67;;;40.70;;
16189;SDS011;41754;51.498;7.540;2022-07-23T07:51:07;44.65;;;39.95;;
16189;SDS011;41754;51.498;7.540;2022-07-23T07:53:36;44.65;;;39.88;;
16189;SDS011;41754;51.498;7.540;2022-07-23T07:56:05;45.22;;;40.40;;
16189;SDS011;41754;51.498;7.540;2022-07-23T07:58:33;44.50;;;39.33;;
16189;SDS011;41754;51.498;7.540;2022-07-23T08:01:01;44.30;;;39.53;;
16189;SDS011;41754;51.498;7.540;2022-07-23T08:03:30;41.78;;;37.20;;
16189;SDS011;41754;51.498;7.540;2022-07-23T08:05:58;40.72;;;36.38;;
16189;SDS011;41754;51.498;7.540;2022-07-23T08:08:26;40.22;;;35.90;;
16189;SDS011;41754;51.498;7.540;2022-07-23T08:10:55;41.53;;;37.15;;
16189;SDS011;41754;51.498;7.540;2022-07-23T08:13:23;42.50;;;38.15;;
16189;SDS011;41754;51.498;7.540;2022-07-23T08:15:51;42.13;;;37.58;;
16189;SDS011;41754;51.498;7.540;2022-07-23T08:18:20;46.88;;;41.83;;
16189;SDS011;41754;51.498;7.540;2022-07-23T08:20:48;49.33;;;41.88;;
16189;SDS011;41754;51.498;7.540;2022-07-23T08:23:16;46.83;;;38.58;;
16189;SDS011;41754;51.498;7.540;2022-07-23T08:25:45;40.45;;;36.22;;
16189;SDS011;41754;51.498;7.540;2022-07-23T08:28:15;42.08;;;37.70;;
16189;SDS011;41754;51.498;7.540;2022-07-23T08:30:43;36.95;;;33.28;;
16189;SDS011;41754;51.498;7.540;2022-07-23T08:33:13;29.75;;;26.63;;
16189;SDS011;41754;51.498;7.540;2022-07-23T08:35:59;28.27;;;25.48;;
16189;SDS011;41754;51.498;7.540;2022-07-23T08:38:29;29.52;;;26.40;;
16189;SDS011;41754;51.498;7.540;2022-07-23T08:40:57;27.77;;;25.08;;
16189;SDS011;41754;51.498;7.540;2022-07-23T08:43:27;22.10;;;19.90;;
16189;SDS011;41754;51.498;7.540;2022-07-23T08:45:57;16.50;;;15.05;;
16189;SDS011;41754;51.498;7.540;2022-07-23T08:48:27;18.10;;;14.40;;
16189;SDS011;41754;51.498;7.540;2022-07-23T08:50:57;14.18;;;12.88;;
16189;SDS011;41754;51.498;7.540;2022-07-23T08:53:27;13.90;;;12.70;;
16189;SDS011;41754;51.498;7.540;2022-07-23T08:55:57;15.98;;;13.10;;
16189;SDS011;41754;51.498;7.540;2022-07-23T08:58:27;13.63;;;12.30;;
16189;SDS011;41754;51.498;7.540;2022-07-23T09:00:55;14.13;;;12.85;;
16189;SDS011;41754;51.498;7.540;2022-07-23T09:03:25;14.18;;;12.50;;
16189;SDS011;41754;51.498;7.540;2022-07-23T09:05:54;14.00;;;12.80;;
16189;SDS011;41754;51.498;7.540;2022-07-23T09:08:23;15.88;;;14.43;;
16189;SDS011;41754;51.498;7.540;2022-07-23T09:10:53;16.15;;;14.75;;
16189;SDS011;41754;51.498;7.540;2022-07-23T09:13:23;15.63;;;14.23;;
16189;SDS011;41754;51.498;7.540;2022-07-23T09:15:57;13.45;;;11.98;;
16189;SDS011;41754;51.498;7.540;2022-07-23T09:18:30;9.73;;;8.80;;
16189;SDS011;41754;51.498;7.540;2022-07-23T09:21:05;10.07;;;8.82;;
16189;SDS011;41754;51.498;7.540;2022-07-23T09:23:38;12.23;;;8.93;;
16189;SDS011;41754;51.498;7.540;2022-07-23T09:26:26;9.25;;;8.38;;
16189;SDS011;41754;51.498;7.540;2022-07-23T09:29:00;9.52;;;8.63;;
16189;SDS011;41754;51.498;7.540;2022-07-23T09:31:45;10.93;;;8.93;;
16189;SDS011;41754;51.498;7.540;2022-07-23T09:34:15;9.07;;;8.15;;
16189;SDS011;41754;51.498;7.540;2022-07-23T09:36:45;8.80;;;7.65;;
16189;SDS011;41754;51.498;7.540;2022-07-23T09:39:14;7.63;;;6.65;;
16189;SDS011;41754;51.498;7.540;2022-07-23T09:41:44;7.57;;;6.63;;
16189;SDS011;41754;51.498;7.540;2022-07-23T09:44:15;8.70;;;7.80;;
16189;SDS011;41754;51.498;7.540;2022-07-23T09:46:49;7.13;;;6.50;;
16189;SDS011;41754;51.498;7.540;2022-07-23T09:49:18;7.00;;;5.95;;
16189;SDS011;41754;51.498;7.540;2022-07-23T09:51:54;6.13;;;5.63;;
16189;SDS011;41754;51.498;7.540;2022-07-23T09:54:27;8.73;;;7.93;;
16189;SDS011;41754;51.498;7.540;2022-07-23T09:57:02;6.82;;;6.22;;
16189;SDS011;41754;51.498;7.540;2022-07-23T09:59:34;8.45;;;6.10;;
16189;SDS011;41754;51.498;7.540;2022-07-23T10:02:03;7.00;;;6.07;;
16189;SDS011;41754;51.498;7.540;2022-07-23T10:04:42;7.00;;;6.30;;
16189;SDS011;41754;51.498;7.540;2022-07-23T10:07:16;7.90;;;6.43;;
16189;SDS011;41754;51.498;7.540;2022-07-23T10:10:11;6.20;;;5.65;;
16189;SDS011;41754;51.498;7.540;2022-07-23T10:12:58;7.40;;;5.65;;
16189;SDS011;41754;51.498;7.540;2022-07-23T10:15:49;6.72;;;5.65;;
16189;SDS011;41754;51.498;7.540;2022-07-23T10:18:17;5.38;;;4.85;;
16189;SDS011;41754;51.498;7.540;2022-07-23T10:20:46;7.35;;;6.43;;
16189;SDS011;41754;51.498;7.540;2022-07-23T10:23:16;6.45;;;5.25;;
16189;SDS011;41754;51.498;7.540;2022-07-23T10:25:49;5.97;;;4.00;;
16189;SDS011;41754;51.498;7.540;2022-07-23T10:28:42;4.50;;;4.10;;
16189;SDS011;41754;51.498;7.540;2022-07-23T10:31:17;6.75;;;4.32;;
16189;SDS011;41754;51.498;7.540;2022-07-23T10:34:16;5.82;;;4.40;;
16189;SDS011;41754;51.498;7.540;2022-07-23T10:36:47;6.35;;;4.15;;
16189;SDS011;41754;51.498;7.540;2022-07-23T10:39:19;4.53;;;4.22;;
16189;SDS011;41754;51.498;7.540;2022-07-23T10:41:50;4.65;;;4.22;;
16189;SDS011;41754;51.498;7.540;2022-07-23T10:44:18;5.88;;;4.60;;
16189;SDS011;41754;51.498;7.540;2022-07-23T10:46:59;5.57;;;3.85;;
16189;SDS011;41754;51.498;7.540;2022-07-23T10:49:38;4.03;;;3.72;;
16189;SDS011;41754;51.498;7.540;2022-07-23T10:52:21;5.95;;;4.13;;
16189;SDS011;41754;51.498;7.540;2022-07-23T10:54:51;4.65;;;4.35;;
16189;SDS011;41754;51.498;7.540;2022-07-23T10:57:20;5.50;;;4.47;;
16189;SDS011;41754;51.498;7.540;2022-07-23T11:02:40;5.00;;;4.32;;
16189;SDS011;41754;51.498;7.540;2022-07-23T11:05:09;8.40;;;5.10;;
16189;SDS011;41754;51.498;7.540;2022-07-23T11:10:52;5.90;;;5.40;;
16189;SDS011;41754;51.498;7.540;2022-07-23T11:16:16;5.20;;;4.10;;
16189;SDS011;41754;51.498;7.540;2022-07-23T11:21:41;4.47;;;3.95;;
16189;SDS011;41754;51.498;7.540;2022-07-23T11:24:11;4.40;;;3.90;;
16189;SDS011;41754;51.498;7.540;2022-07-23T11:26:47;4.68;;;3.60;;
16189;SDS011;41754;51.498;7.540;2022-07-23T11:29:42;4.28;;;3.83;;
16189;SDS011;41754;51.498;7.540;2022-07-23T11:32:28;4.72;;;4.32;;
16189;SDS011;41754;51.498;7.540;2022-07-23T11:35:05;5.43;;;4.47;;
16189;SDS011;41754;51.498;7.540;2022-07-23T11:37:46;5.00;;;4.60;;
16189;SDS011;41754;51.498;7.540;2022-07-23T11:40:15;4.95;;;4.45;;
16189;SDS011;41754;51.498;7.540;2022-07-23T11:42:57;5.65;;;5.22;;
16189;SDS011;41754;51.498;7.540;2022-07-23T11:45:29;4.60;;;4.20;;
16189;SDS011;41754;51.498;7.540;2022-07-23T11:47:59;5.38;;;4.88;;
16189;SDS011;41754;51.498;7.540;2022-07-23T11:50:29;5.53;;;5.03;;
16189;SDS011;41754;51.498;7.540;2022-07-23T11:52:57;6.15;;;5.65;;
16189;SDS011;41754;51.498;7.540;2022-07-23T11:55:26;5.68;;;5.18;;
16189;SDS011;41754;51.498;7.540;2022-07-23T11:57:54;5.32;;;4.93;;
16189;SDS011;41754;51.498;7.540;2022-07-23T12:00:26;8.68;;;5.80;;
16189;SDS011;41754;51.498;7.540;2022-07-23T12:02:56;5.10;;;4.70;;
16189;SDS011;41754;51.498;7.540;2022-07-23T12:05:27;6.60;;;5.13;;
16189;SDS011;41754;51.498;7.540;2022-07-23T12:07:58;5.28;;;4.72;;
16189;SDS011;41754;51.498;7.540;2022-07-23T12:10:27;4.57;;;4.20;;
16189;SDS011;41754;51.498;7.540;2022-07-23T12:12:57;4.45;;;4.10;;
16189;SDS011;41754;51.498;7.540;2022-07-23T12:15:27;4.00;;;3.70;;
16189;SDS011;41754;51.498;7.540;2022-07-23T12:17:58;4.43;;;4.10;;
16189;SDS011;41754;51.498;7.540;2022-07-23T12:20:27;5.78;;;3.88;;
16189;SDS011;41754;51.498;7.540;2022-07-23T12:22:58;4.63;;;4.18;;
16189;SDS011;41754;51.498;7.540;2022-07-23T12:25:28;4.75;;;4.15;;
16189;SDS011;41754;51.498;7.540;2022-07-23T12:28:00;5.55;;;4.18;;
16189;SDS011;41754;51.498;7.540;2022-07-23T12:30:31;4.57;;;4.18;;
16189;SDS011;41754;51.498;7.540;2022-07-23T12:33:00;4.25;;;3.95;;
16189;SDS011;41754;51.498;7.540;2022-07-23T12:35:34;3.65;;;3.40;;
16189;SDS011;41754;51.498;7.540;2022-07-23T12:38:05;3.95;;;3.55;;
16189;SDS011;41754;51.498;7.540;2022-07-23T12:40:35;4.43;;;3.13;;
16189;SDS011;41754;51.498;7.540;2022-07-23T12:43:07;3.70;;;2.92;;
16189;SDS011;41754;51.498;7.540;2022-07-23T12:45:46;3.17;;;2.88;;
16189;SDS011;41754;51.498;7.540;2022-07-23T12:48:16;4.63;;;4.10;;
16189;SDS011;41754;51.498;7.540;2022-07-23T12:50:53;2.72;;;2.53;;
16189;SDS011;41754;51.498;7.540;2022-07-23T12:53:25;2.90;;;2.70;;
16189;SDS011;41754;51.498;7.540;2022-07-23T12:55:59;3.40;;;3.10;;
16189;SDS011;41754;51.498;7.540;2022-07-23T12:58:47;3.88;;;3.40;;
16189;SDS011;41754;51.498;7.540;2022-07-23T13:01:24;3.65;;;3.40;;
16189;SDS011;41754;51.498;7.540;2022-07-23T13:03:57;3.10;;;2.38;;
16189;SDS011;41754;51.498;7.540;2022-07-23T13:06:27;3.25;;;2.90;;
16189;SDS011;41754;51.498;7.540;2022-07-23T13:08:58;3.05;;;2.70;;
16189;SDS011;41754;51.498;7.540;2022-07-23T13:11:28;3.00;;;2.80;;
16189;SDS011;41754;51.498;7.540;2022-07-23T13:13:56;3.00;;;2.78;;
16189;SDS011;41754;51.498;7.540;2022-07-23T13:16:28;3.20;;;2.67;;
16189;SDS011;41754;51.498;7.540;2022-07-23T13:18:56;3.40;;;2.33;;
16189;SDS011;41754;51.498;7.540;2022-07-23T13:21:25;2.88;;;2.67;;
16189;SDS011;41754;51.498;7.540;2022-07-23T13:23:54;2.38;;;2.28;;
16189;SDS011;41754;51.498;7.540;2022-07-23T13:26:23;2.35;;;2.20;;
16189;SDS011;41754;51.498;7.540;2022-07-23T13:28:52;3.03;;;2.15;;
16189;SDS011;41754;51.498;7.540;2022-07-23T13:31:20;3.47;;;2.70;;
16189;SDS011;41754;51.498;7.540;2022-07-23T13:33:50;3.47;;;2.72;;
16189;SDS011;41754;51.498;7.540;2022-07-23T13:36:18;3.88;;;2.42;;
16189;SDS011;41754;51.498;7.540;2022-07-23T13:38:46;2.47;;;2.28;;
16189;SDS011;41754;51.498;7.540;2022-07-23T13:41:15;3.65;;;2.65;;
16189;SDS011;41754;51.498;7.540;2022-07-23T13:43:46;2.50;;;2.30;;
16189;SDS011;41754;51.498;7.540;2022-07-23T13:46:14;2.55;;;2.35;;
16189;SDS011;41754;51.498;7.540;2022-07-23T13:48:42;2.35;;;2.15;;
16189;SDS011;41754;51.498;7.540;2022-07-23T13:51:10;4.47;;;1.90;;
16189;SDS011;41754;51.498;7.540;2022-07-23T13:53:39;2.50;;;2.30;;
16189;SDS011;41754;51.498;7.540;2022-07-23T13:56:07;2.97;;;2.70;;
16189;SDS011;41754;51.498;7.540;2022-07-23T13:58:35;4.03;;;2.25;;
16189;SDS011;41754;51.498;7.540;2022-07-23T14:01:06;4.00;;;3.03;;
16189;SDS011;41754;51.498;7.540;2022-07-23T14:03:34;2.33;;;2.20;;
16189;SDS011;41754;51.498;7.540;2022-07-23T14:06:02;2.22;;;2.00;;
16189;SDS011;41754;51.498;7.540;2022-07-23T14:08:41;2.20;;;2.00;;
16189;SDS011;41754;51.498;7.540;2022-07-23T14:11:10;2.35;;;2.15;;
16189;SDS011;41754;51.498;7.540;2022-07-23T14:13:38;3.05;;;2.53;;
16189;SDS011;41754;51.498;7.540;2022-07-23T14:16:08;5.88;;;2.03;;
16189;SDS011;41754;51.498;7.540;2022-07-23T14:18:36;2.90;;;1.83;;
16189;SDS011;41754;51.498;7.540;2022-07-23T14:21:04;3.88;;;2.20;;
16189;SDS011;41754;51.498;7.540;2022-07-23T14:23:32;2.53;;;2.22;;
16189;SDS011;41754;51.498;7.540;2022-07-23T14:26:00;2.53;;;2.30;;
16189;SDS011;41754;51.498;7.540;2022-07-23T14:28:32;3.80;;;2.20;;
16189;SDS011;41754;51.498;7.540;2022-07-23T14:31:01;2.53;;;2.30;;
16189;SDS011;41754;51.498;7.540;2022-07-23T14:33:31;3.38;;;2.58;;
16189;SDS011;41754;51.498;7.540;2022-07-23T14:36:00;4.03;;;2.03;;
16189;SDS011;41754;51.498;7.540;2022-07-23T14:38:28;2.88;;;2.65;;
16189;SDS011;41754;51.498;7.540;2022-07-23T14:40:56;2.55;;;2.35;;
16189;SDS011;41754;51.498;7.540;2022-07-23T14:43:25;2.85;;;2.40;;
16189;SDS011;41754;51.498;7.540;2022-07-23T14:45:54;3.15;;;2.50;;
16189;SDS011;41754;51.498;7.540;2022-07-23T14:48:22;3.17;;;2.85;;
16189;SDS011;41754;51.498;7.540;2022-07-23T14:50:52;3.00;;;2.40;;
16189;SDS011;41754;51.498;7.540;2022-07-23T14:53:20;2.50;;;2.30;;
16189;SDS011;41754;51.498;7.540;2022-07-23T14:55:51;2.50;;;2.30;;
16189;SDS011;41754;51.498;7.540;2022-07-23T14:58:20;2.80;;;2.50;;
16189;SDS011;41754;51.498;7.540;2022-07-23T15:00:49;2.70;;;2.50;;